Time,TemperatureF,DewpointF,PressureIn,WindDirection,WindDirectionDegrees,WindSpeedMPH,WindSpeedGustMPH,Humidity,HourlyPrecipIn,Conditions,Clouds,dailyrainin,SoftwareType,DateUTC
2013-01-30 00:32:00,39.5,34.2,30.11,South,176,3.0,10.0,81,0.00,,,0.00,VWS V13.01,2013-01-30 05:32:00,
2013-01-30 01:02:00,40.4,35.0,30.10,SSW,199,3.0,13.0,81,0.00,,,0.00,VWS V13.01,2013-01-30 06:02:00,
2013-01-30 01:32:00,40.0,34.7,30.09,SSW,192,5.0,14.0,81,0.00,,,0.00,VWS V13.01,2013-01-30 06:32:00,
2013-01-30 02:02:00,39.3,32.7,30.08,SSW,198,6.0,13.0,77,0.00,,,0.00,VWS V13.01,2013-01-30 07:02:00,
2013-01-30 02:32:00,39.7,31.8,30.06,SW,232,7.0,16.0,73,0.00,,,0.00,VWS V13.01,2013-01-30 07:32:00,
2013-01-30 03:02:00,40.7,31.0,30.05,SSW,200,15.0,16.0,68,0.00,,,0.00,VWS V13.01,2013-01-30 08:02:00,
2013-01-30 03:32:00,41.7,30.8,30.04,SSW,205,3.0,18.0,65,0.00,,,0.00,VWS V13.01,2013-01-30 08:32:00,
2013-01-30 04:02:00,42.3,30.2,30.03,SSW,213,4.0,15.0,62,0.01,,,0.01,VWS V13.01,2013-01-30 09:02:00,
2013-01-30 04:32:00,42.6,29.7,30.00,South,190,4.0,19.0,60,0.02,,,0.02,VWS V13.01,2013-01-30 09:32:00,
2013-01-30 05:02:00,42.8,29.5,29.99,SW,218,10.0,16.0,59,0.03,,,0.03,VWS V13.01,2013-01-30 10:02:00,
2013-01-30 05:32:00,43.0,29.2,29.98,SSW,207,7.0,19.0,58,0.04,,,0.05,VWS V13.01,2013-01-30 10:32:00,
2013-01-30 06:02:00,43.1,29.3,29.98,SSW,213,3.0,19.0,58,0.04,,,0.06,VWS V13.01,2013-01-30 11:02:00,
2013-01-30 06:32:00,43.2,29.0,29.97,SW,214,4.0,19.0,57,0.03,,,0.06,VWS V13.01,2013-01-30 11:32:00,
2013-01-30 07:02:00,43.2,29.0,29.95,South,180,4.0,19.0,57,0.01,,,0.06,VWS V13.01,2013-01-30 12:02:00,
2013-01-30 07:32:00,43.4,28.3,29.95,SSW,194,2.0,22.0,55,0.00,,,0.06,VWS V13.01,2013-01-30 12:32:00,
2013-01-30 08:02:00,44.0,28.0,29.93,WSW,239,19.0,22.0,53,0.00,,,0.06,VWS V13.01,2013-01-30 13:02:00,
2013-01-30 08:32:00,44.6,27.6,29.91,South,188,11.0,16.0,51,0.01,,,0.07,VWS V13.01,2013-01-30 13:32:00,
2013-01-30 09:02:00,45.3,27.8,29.89,SW,222,6.0,18.0,50,0.01,,,0.07,VWS V13.01,2013-01-30 14:02:00,
2013-01-30 09:32:00,45.6,27.6,29.88,South,186,9.0,19.0,49,0.02,,,0.08,VWS V13.01,2013-01-30 14:32:00,
2013-01-30 10:02:00,45.8,27.2,29.85,SW,216,6.0,17.0,48,0.01,,,0.08,VWS V13.01,2013-01-30 15:02:00,
2013-01-30 10:32:00,46.7,27.6,29.83,West,265,11.0,18.0,47,0.01,,,0.08,VWS V13.01,2013-01-30 15:32:00,
2013-01-30 11:02:00,47.3,27.6,29.81,SW,234,12.0,20.0,46,0.01,,,0.09,VWS V13.01,2013-01-30 16:02:00,
2013-01-30 11:32:00,48.2,-99.9,29.76,SW,226,16.0,26.0,45,0.01,,,0.09,VWS V13.01,2013-01-30 16:32:00,
2013-01-30 12:02:00,48.2,-99.9,29.73,South,182,7.0,26.0,44,0.01,,,0.09,VWS V13.01,2013-01-30 17:02:00,
2013-01-30 12:32:00,48.2,-99.9,29.70,SSW,205,14.0,23.0,44,0.00,,,0.09,VWS V13.01,2013-01-30 17:32:00,
2013-01-30 13:02:00,48.2,-99.9,29.68,SSW,205,11.0,25.0,44,0.00,,,0.09,VWS V13.01,2013-01-30 18:02:00,
2013-01-30 13:32:00,50.6,30.1,29.66,WSW,250,13.0,29.0,45,0.00,,,0.09,VWS V13.01,2013-01-30 18:32:00,
2013-01-30 14:02:00,51.1,-99.9,29.64,SW,231,13.0,23.0,44,0.00,,,0.09,VWS V13.01,2013-01-30 19:02:00,
2013-01-30 14:32:00,51.1,-99.9,29.62,WSW,245,9.0,27.0,43,0.00,,,0.09,VWS V13.01,2013-01-30 19:32:00,
2013-01-30 15:02:00,51.1,-99.9,29.60,SSW,213,7.0,26.0,43,0.00,,,0.09,VWS V13.01,2013-01-30 20:02:00,
2013-01-30 15:32:00,51.1,-99.9,29.59,SW,223,11.0,24.0,43,0.00,,,0.09,VWS V13.01,2013-01-30 20:32:00,
2013-01-30 16:02:00,51.1,-99.9,29.56,SW,232,15.0,25.0,43,0.00,,,0.09,VWS V13.01,2013-01-30 21:02:00,
2013-01-30 16:32:00,51.1,-99.9,29.54,WSW,250,19.0,29.0,43,0.00,,,0.09,VWS V13.01,2013-01-30 21:32:00,
2013-01-30 17:02:00,51.1,-99.9,29.55,SW,236,11.0,32.0,43,0.00,,,0.09,VWS V13.01,2013-01-30 22:02:00,
2013-01-30 17:32:00,51.1,-99.9,29.54,WSW,244,19.0,31.0,43,0.00,,,0.09,VWS V13.01,2013-01-30 22:32:00,
2013-01-30 18:02:00,51.1,-99.9,29.54,SW,221,24.0,33.0,43,0.01,,,0.10,VWS V13.01,2013-01-30 23:02:00,
2013-01-30 18:32:00,51.1,-99.9,29.53,SW,221,21.0,30.0,43,0.03,,,0.12,VWS V13.01,2013-01-30 23:32:00,
2013-01-30 19:02:00,51.1,-99.9,29.52,WSW,240,19.0,31.0,43,0.03,,,0.12,VWS V13.01,2013-01-31 00:02:00,
2013-01-30 19:32:00,51.1,-99.9,29.52,WSW,257,17.0,30.0,43,0.02,,,0.12,VWS V13.01,2013-01-31 00:32:00,
2013-01-30 20:02:00,-39.3,-99.9,29.51,SW,231,19.0,26.0,35,0.01,,,0.13,VWS V13.01,2013-01-31 01:02:00,
2013-01-30 20:32:00,-39.3,-99.9,29.50,SW,219,19.0,27.0,35,0.07,,,0.19,VWS V13.01,2013-01-31 01:32:00,
2013-01-30 21:32:00,-39.3,-99.9,29.47,WSW,244,12.0,33.0,35,0.07,,,0.20,VWS V13.01,2013-01-31 02:32:00,
2013-01-30 22:02:00,-39.3,-99.9,29.45,WSW,244,20.0,34.0,35,0.01,,,0.20,VWS V13.01,2013-01-31 03:02:00,
2013-01-30 22:32:00,-39.3,-99.9,29.44,WSW,242,22.0,33.0,35,0.00,,,0.20,VWS V13.01,2013-01-31 03:32:00,
2013-01-30 23:02:00,-39.3,-99.9,29.44,WSW,237,16.0,33.0,34,0.00,,,0.20,VWS V13.01,2013-01-31 04:02:00,
2013-01-30 23:32:00,-39.3,-99.9,29.42,West,262,20.0,32.0,35,0.00,,,0.20,VWS V13.01,2013-01-31 04:32:00,